sensor_id;sensor_type;location;lat;lon;timestamp;P1;durP1;ratioP1;P2;durP2;ratioP2
28958;SDS011;16066;0.000;0.000;2023-06-14T05:32:03;12.53;;;4.90;;
28958;SDS011;16066;0.000;0.000;2023-06-14T05:34:29;5.43;;;4.37;;
28958;SDS011;16066;0.000;0.000;2023-06-14T05:36:54;5.90;;;4.83;;
28958;SDS011;16066;0.000;0.000;2023-06-14T05:39:20;7.27;;;5.40;;
28958;SDS011;16066;0.000;0.000;2023-06-14T05:41:46;8.30;;;4.90;;
28958;SDS011;16066;0.000;0.000;2023-06-14T05:44:12;9.67;;;5.20;;
28958;SDS011;16066;0.000;0.000;2023-06-14T05:46:38;7.70;;;4.67;;
28958;SDS011;16066;0.000;0.000;2023-06-14T05:49:05;16.33;;;6.73;;
28958;SDS011;16066;0.000;0.000;2023-06-14T05:51:30;9.40;;;5.87;;
28958;SDS011;16066;0.000;0.000;2023-06-14T05:53:56;8.90;;;5.30;;
28958;SDS011;16066;0.000;0.000;2023-06-14T05:56:21;6.53;;;5.23;;
28958;SDS011;16066;0.000;0.000;2023-06-14T05:58:47;9.90;;;5.47;;
28958;SDS011;16066;0.000;0.000;2023-06-14T06:01:13;8.00;;;5.20;;
28958;SDS011;16066;0.000;0.000;2023-06-14T06:03:39;7.90;;;5.33;;
28958;SDS011;16066;0.000;0.000;2023-06-14T06:06:04;7.97;;;5.67;;
28958;SDS011;16066;0.000;0.000;2023-06-14T06:08:30;8.87;;;4.97;;
28958;SDS011;16066;0.000;0.000;2023-06-14T06:10:56;9.73;;;5.77;;
28958;SDS011;16066;0.000;0.000;2023-06-14T06:13:22;6.40;;;4.37;;
28958;SDS011;16066;0.000;0.000;2023-06-14T06:15:47;9.93;;;6.37;;
28958;SDS011;16066;0.000;0.000;2023-06-14T06:18:13;8.23;;;4.90;;
28958;SDS011;16066;0.000;0.000;2023-06-14T06:20:38;11.90;;;5.50;;
28958;SDS011;16066;0.000;0.000;2023-06-14T06:23:04;10.10;;;4.40;;
28958;SDS011;16066;0.000;0.000;2023-06-14T06:25:29;8.40;;;4.60;;
28958;SDS011;16066;0.000;0.000;2023-06-14T06:27:56;12.13;;;4.90;;
28958;SDS011;16066;0.000;0.000;2023-06-14T06:30:22;9.33;;;4.60;;
28958;SDS011;16066;0.000;0.000;2023-06-14T06:32:48;12.60;;;4.83;;
28958;SDS011;16066;0.000;0.000;2023-06-14T06:35:14;9.60;;;4.13;;
28958;SDS011;16066;0.000;0.000;2023-06-14T06:37:40;7.33;;;4.50;;
28958;SDS011;16066;0.000;0.000;2023-06-14T06:40:07;5.93;;;4.23;;
28958;SDS011;16066;0.000;0.000;2023-06-14T06:42:33;7.83;;;4.20;;
28958;SDS011;16066;0.000;0.000;2023-06-14T06:44:59;5.30;;;4.33;;
28958;SDS011;16066;0.000;0.000;2023-06-14T06:47:24;5.53;;;4.20;;
28958;SDS011;16066;0.000;0.000;2023-06-14T06:49:50;11.90;;;5.73;;
28958;SDS011;16066;0.000;0.000;2023-06-14T06:52:15;17.40;;;4.57;;
28958;SDS011;16066;0.000;0.000;2023-06-14T06:54:41;15.77;;;5.03;;
28958;SDS011;16066;0.000;0.000;2023-06-14T06:57:06;5.60;;;4.30;;
28958;SDS011;16066;0.000;0.000;2023-06-14T06:59:32;9.37;;;3.90;;
28958;SDS011;16066;0.000;0.000;2023-06-14T07:01:58;5.60;;;4.00;;
28958;SDS011;16066;0.000;0.000;2023-06-14T07:04:24;8.40;;;4.43;;
28958;SDS011;16066;0.000;0.000;2023-06-14T07:06:49;15.00;;;4.00;;
28958;SDS011;16066;0.000;0.000;2023-06-14T07:09:15;16.27;;;4.20;;
28958;SDS011;16066;0.000;0.000;2023-06-14T07:11:41;5.87;;;3.40;;
28958;SDS011;16066;0.000;0.000;2023-06-14T07:14:08;6.03;;;3.40;;
28958;SDS011;16066;0.000;0.000;2023-06-14T07:16:33;9.03;;;3.23;;
28958;SDS011;16066;0.000;0.000;2023-06-14T07:18:59;6.13;;;3.13;;
28958;SDS011;16066;0.000;0.000;2023-06-14T07:21:27;3.63;;;3.07;;
28958;SDS011;16066;0.000;0.000;2023-06-14T07:23:53;6.90;;;3.10;;
28958;SDS011;16066;0.000;0.000;2023-06-14T07:26:19;8.20;;;3.70;;
28958;SDS011;16066;0.000;0.000;2023-06-14T07:28:45;3.67;;;3.33;;
28958;SDS011;16066;0.000;0.000;2023-06-14T07:31:12;8.30;;;2.80;;
28958;SDS011;16066;0.000;0.000;2023-06-14T07:33:38;4.53;;;3.10;;
28958;SDS011;16066;0.000;0.000;2023-06-14T07:36:04;4.07;;;2.80;;
28958;SDS011;16066;0.000;0.000;2023-06-14T07:38:30;9.70;;;2.97;;
28958;SDS011;16066;0.000;0.000;2023-06-14T07:40:55;3.70;;;3.07;;
28958;SDS011;16066;0.000;0.000;2023-06-14T07:43:21;3.30;;;2.50;;
28958;SDS011;16066;0.000;0.000;2023-06-14T07:45:46;2.53;;;2.30;;
28958;SDS011;16066;0.000;0.000;2023-06-14T07:48:12;3.10;;;2.53;;
28958;SDS011;16066;0.000;0.000;2023-06-14T07:50:37;4.13;;;2.93;;
28958;SDS011;16066;0.000;0.000;2023-06-14T07:53:03;3.00;;;2.40;;
28958;SDS011;16066;0.000;0.000;2023-06-14T07:55:28;3.50;;;2.33;;
28958;SDS011;16066;0.000;0.000;2023-06-14T07:57:54;3.40;;;2.70;;
28958;SDS011;16066;0.000;0.000;2023-06-14T08:00:20;3.43;;;2.73;;
28958;SDS011;16066;0.000;0.000;2023-06-14T08:02:46;2.40;;;2.20;;
28958;SDS011;16066;0.000;0.000;2023-06-14T08:05:12;2.90;;;2.60;;
28958;SDS011;16066;0.000;0.000;2023-06-14T08:07:38;3.00;;;2.40;;
28958;SDS011;16066;0.000;0.000;2023-06-14T08:10:05;3.77;;;2.60;;
28958;SDS011;16066;0.000;0.000;2023-06-14T08:12:31;3.00;;;2.50;;
28958;SDS011;16066;0.000;0.000;2023-06-14T08:14:57;2.30;;;2.00;;
28958;SDS011;16066;0.000;0.000;2023-06-14T08:17:23;5.73;;;2.50;;
28958;SDS011;16066;0.000;0.000;2023-06-14T08:19:48;4.20;;;2.30;;
28958;SDS011;16066;0.000;0.000;2023-06-14T08:22:14;3.67;;;2.40;;
28958;SDS011;16066;0.000;0.000;2023-06-14T08:24:40;4.53;;;3.10;;
28958;SDS011;16066;0.000;0.000;2023-06-14T08:27:06;25.83;;;3.03;;
28958;SDS011;16066;0.000;0.000;2023-06-14T08:29:31;3.23;;;2.50;;
28958;SDS011;16066;0.000;0.000;2023-06-14T08:31:57;6.90;;;2.40;;
28958;SDS011;16066;0.000;0.000;2023-06-14T08:34:23;5.87;;;2.63;;
28958;SDS011;16066;0.000;0.000;2023-06-14T08:36:51;5.30;;;2.70;;
28958;SDS011;16066;0.000;0.000;2023-06-14T08:39:16;2.80;;;2.10;;
28958;SDS011;16066;0.000;0.000;2023-06-14T08:41:45;5.50;;;2.20;;
28958;SDS011;16066;0.000;0.000;2023-06-14T08:44:13;2.67;;;2.00;;
28958;SDS011;16066;0.000;0.000;2023-06-14T08:46:40;2.97;;;2.03;;
28958;SDS011;16066;0.000;0.000;2023-06-14T08:49:07;3.33;;;1.80;;
28958;SDS011;16066;0.000;0.000;2023-06-14T08:51:36;3.23;;;2.10;;
28958;SDS011;16066;0.000;0.000;2023-06-14T08:54:02;2.50;;;2.27;;
28958;SDS011;16066;0.000;0.000;2023-06-14T08:56:29;2.77;;;2.20;;
28958;SDS011;16066;0.000;0.000;2023-06-14T08:58:56;2.17;;;1.97;;
28958;SDS011;16066;0.000;0.000;2023-06-14T09:01:22;2.93;;;2.30;;
28958;SDS011;16066;0.000;0.000;2023-06-14T09:03:49;2.63;;;2.00;;
28958;SDS011;16066;0.000;0.000;2023-06-14T09:06:15;3.57;;;2.20;;
28958;SDS011;16066;0.000;0.000;2023-06-14T09:08:44;2.80;;;1.60;;
28958;SDS011;16066;0.000;0.000;2023-06-14T09:11:11;2.27;;;2.00;;
28958;SDS011;16066;0.000;0.000;2023-06-14T09:13:38;2.63;;;1.80;;
28958;SDS011;16066;0.000;0.000;2023-06-14T09:16:04;2.50;;;1.80;;
28958;SDS011;16066;0.000;0.000;2023-06-14T09:19:03;2.50;;;1.40;;
28958;SDS011;16066;0.000;0.000;2023-06-14T09:21:22;2.27;;;1.80;;
28958;SDS011;16066;0.000;0.000;2023-06-14T09:23:48;1.70;;;1.60;;
28958;SDS011;16066;0.000;0.000;2023-06-14T09:26:17;2.40;;;1.70;;
28958;SDS011;16066;0.000;0.000;2023-06-14T09:28:48;1.97;;;1.77;;
28958;SDS011;16066;0.000;0.000;2023-06-14T09:31:18;2.27;;;1.77;;
28958;SDS011;16066;0.000;0.000;2023-06-14T09:33:45;1.63;;;1.50;;
28958;SDS011;16066;0.000;0.000;2023-06-14T09:36:17;3.70;;;1.77;;
28958;SDS011;16066;0.000;0.000;2023-06-14T09:38:56;3.30;;;2.00;;
28958;SDS011;16066;0.000;0.000;2023-06-14T09:41:32;2.60;;;2.00;;
28958;SDS011;16066;0.000;0.000;2023-06-14T09:44:08;2.97;;;2.40;;
28958;SDS011;16066;0.000;0.000;2023-06-14T09:46:37;4.37;;;2.00;;
28958;SDS011;16066;0.000;0.000;2023-06-14T09:49:03;1.80;;;1.70;;
28958;SDS011;16066;0.000;0.000;2023-06-14T09:51:30;2.60;;;2.07;;
28958;SDS011;16066;0.000;0.000;2023-06-14T09:53:59;3.70;;;2.30;;
28958;SDS011;16066;0.000;0.000;2023-06-14T09:56:38;6.20;;;2.00;;
28958;SDS011;16066;0.000;0.000;2023-06-14T09:59:06;1.87;;;1.70;;
28958;SDS011;16066;0.000;0.000;2023-06-14T10:01:35;7.57;;;2.43;;
28958;SDS011;16066;0.000;0.000;2023-06-14T10:04:06;2.00;;;1.80;;
28958;SDS011;16066;0.000;0.000;2023-06-14T10:06:35;3.80;;;2.00;;
28958;SDS011;16066;0.000;0.000;2023-06-14T10:09:03;2.93;;;2.17;;
28958;SDS011;16066;0.000;0.000;2023-06-14T10:11:30;3.50;;;2.10;;
28958;SDS011;16066;0.000;0.000;2023-06-14T10:13:56;1.93;;;1.67;;
28958;SDS011;16066;0.000;0.000;2023-06-14T10:19:33;2.60;;;2.13;;
28958;SDS011;16066;0.000;0.000;2023-06-14T10:22:13;2.40;;;1.70;;
28958;SDS011;16066;0.000;0.000;2023-06-14T10:24:44;2.33;;;2.00;;
28958;SDS011;16066;0.000;0.000;2023-06-14T10:27:14;2.53;;;1.60;;
28958;SDS011;16066;0.000;0.000;2023-06-14T10:32:22;2.60;;;2.20;;
28958;SDS011;16066;0.000;0.000;2023-06-14T10:34:59;3.00;;;1.97;;
28958;SDS011;16066;0.000;0.000;2023-06-14T10:37:29;4.53;;;1.63;;
28958;SDS011;16066;0.000;0.000;2023-06-14T10:39:54;2.70;;;1.90;;
28958;SDS011;16066;0.000;0.000;2023-06-14T10:42:20;3.53;;;2.00;;
28958;SDS011;16066;0.000;0.000;2023-06-14T10:44:51;8.67;;;2.00;;
28958;SDS011;16066;0.000;0.000;2023-06-14T10:47:22;4.07;;;1.80;;
28958;SDS011;16066;0.000;0.000;2023-06-14T10:49:50;3.03;;;1.80;;
28958;SDS011;16066;0.000;0.000;2023-06-14T10:52:19;3.40;;;2.27;;
28958;SDS011;16066;0.000;0.000;2023-06-14T10:57:29;2.90;;;1.73;;
28958;SDS011;16066;0.000;0.000;2023-06-14T10:59:57;2.87;;;1.87;;
28958;SDS011;16066;0.000;0.000;2023-06-14T11:02:29;2.27;;;2.00;;
28958;SDS011;16066;0.000;0.000;2023-06-14T11:05:03;3.90;;;2.00;;
28958;SDS011;16066;0.000;0.000;2023-06-14T11:10:36;2.67;;;1.63;;
28958;SDS011;16066;0.000;0.000;2023-06-14T11:13:02;4.13;;;1.97;;
28958;SDS011;16066;0.000;0.000;2023-06-14T11:15:32;2.27;;;2.00;;
28958;SDS011;16066;0.000;0.000;2023-06-14T11:18:05;2.50;;;1.93;;
28958;SDS011;16066;0.000;0.000;2023-06-14T11:20:32;1.50;;;1.40;;
28958;SDS011;16066;0.000;0.000;2023-06-14T11:22:59;3.87;;;1.83;;
28958;SDS011;16066;0.000;0.000;2023-06-14T11:25:25;2.07;;;1.63;;
28958;SDS011;16066;0.000;0.000;2023-06-14T11:27:52;1.80;;;1.40;;
28958;SDS011;16066;0.000;0.000;2023-06-14T11:30:18;1.83;;;1.40;;
28958;SDS011;16066;0.000;0.000;2023-06-14T11:32:47;1.90;;;1.40;;
28958;SDS011;16066;0.000;0.000;2023-06-14T11:35:18;3.80;;;1.60;;
28958;SDS011;16066;0.000;0.000;2023-06-14T11:37:48;3.27;;;1.70;;
28958;SDS011;16066;0.000;0.000;2023-06-14T11:40:14;3.30;;;1.80;;
28958;SDS011;16066;0.000;0.000;2023-06-14T11:42:40;4.77;;;1.50;;
28958;SDS011;16066;0.000;0.000;2023-06-14T11:45:09;3.00;;;1.50;;
28958;SDS011;16066;0.000;0.000;2023-06-14T11:47:36;1.60;;;1.50;;
28958;SDS011;16066;0.000;0.000;2023-06-14T11:50:03;1.97;;;1.17;;
28958;SDS011;16066;0.000;0.000;2023-06-14T11:52:30;1.47;;;1.33;;
28958;SDS011;16066;0.000;0.000;2023-06-14T11:54:56;3.27;;;1.53;;
28958;SDS011;16066;0.000;0.000;2023-06-14T11:57:22;3.63;;;1.33;;
28958;SDS011;16066;0.000;0.000;2023-06-14T11:59:48;5.20;;;1.60;;
28958;SDS011;16066;0.000;0.000;2023-06-14T12:02:15;1.97;;;1.60;;
28958;SDS011;16066;0.000;0.000;2023-06-14T12:04:41;1.80;;;1.53;;
28958;SDS011;16066;0.000;0.000;2023-06-14T12:07:13;1.93;;;1.50;;
28958;SDS011;16066;0.000;0.000;2023-06-14T12:10:26;3.13;;;1.60;;
28958;SDS011;16066;0.000;0.000;2023-06-14T12:12:26;3.13;;;1.57;;
28958;SDS011;16066;0.000;0.000;2023-06-14T12:14:52;1.40;;;1.10;;
28958;SDS011;16066;0.000;0.000;2023-06-14T12:17:20;1.83;;;1.23;;
28958;SDS011;16066;0.000;0.000;2023-06-14T12:19:45;1.97;;;1.30;;
28958;SDS011;16066;0.000;0.000;2023-06-14T12:22:13;1.70;;;1.40;;
28958;SDS011;16066;0.000;0.000;2023-06-14T12:24:39;1.53;;;1.43;;
28958;SDS011;16066;0.000;0.000;2023-06-14T12:27:07;1.93;;;1.77;;
28958;SDS011;16066;0.000;0.000;2023-06-14T12:29:33;1.40;;;1.30;;
28958;SDS011;16066;0.000;0.000;2023-06-14T12:31:59;2.50;;;1.50;;
28958;SDS011;16066;0.000;0.000;2023-06-14T12:34:25;1.20;;;1.10;;
28958;SDS011;16066;0.000;0.000;2023-06-14T12:36:52;3.47;;;1.60;;
28958;SDS011;16066;0.000;0.000;2023-06-14T12:39:18;4.53;;;1.40;;
28958;SDS011;16066;0.000;0.000;2023-06-14T12:41:44;2.80;;;1.60;;
28958;SDS011;16066;0.000;0.000;2023-06-14T12:44:13;4.60;;;1.80;;
28958;SDS011;16066;0.000;0.000;2023-06-14T12:46:39;2.27;;;1.60;;
28958;SDS011;16066;0.000;0.000;2023-06-14T12:49:07;2.40;;;1.37;;
28958;SDS011;16066;0.000;0.000;2023-06-14T12:51:33;3.83;;;1.60;;
28958;SDS011;16066;0.000;0.000;2023-06-14T12:53:59;2.50;;;1.43;;
28958;SDS011;16066;0.000;0.000;2023-06-14T12:56:24;1.77;;;1.20;;
28958;SDS011;16066;0.000;0.000;2023-06-14T12:58:51;3.50;;;1.57;;
28958;SDS011;16066;0.000;0.000;2023-06-14T13:01:16;2.33;;;1.50;;
28958;SDS011;16066;0.000;0.000;2023-06-14T13:03:42;3.27;;;1.60;;
28958;SDS011;16066;0.000;0.000;2023-06-14T13:06:08;2.63;;;1.40;;
28958;SDS011;16066;0.000;0.000;2023-06-14T13:08:33;3.23;;;1.50;;
28958;SDS011;16066;0.000;0.000;2023-06-14T13:10:59;9.20;;;1.87;;
28958;SDS011;16066;0.000;0.000;2023-06-14T13:13:25;4.30;;;1.77;;
28958;SDS011;16066;0.000;0.000;2023-06-14T13:15:50;4.23;;;2.03;;
28958;SDS011;16066;0.000;0.000;2023-06-14T13:18:16;2.50;;;1.60;;
28958;SDS011;16066;0.000;0.000;2023-06-14T13:20:42;5.90;;;2.47;;
28958;SDS011;16066;0.000;0.000;2023-06-14T13:23:08;7.90;;;1.70;;
28958;SDS011;16066;0.000;0.000;2023-06-14T13:25:35;5.63;;;2.20;;
28958;SDS011;16066;0.000;0.000;2023-06-14T13:28:02;4.40;;;1.90;;
28958;SDS011;16066;0.000;0.000;2023-06-14T13:30:28;3.50;;;1.60;;
28958;SDS011;16066;0.000;0.000;2023-06-14T13:32:54;5.20;;;1.60;;
28958;SDS011;16066;0.000;0.000;2023-06-14T13:35:20;9.80;;;2.80;;
28958;SDS011;16066;0.000;0.000;2023-06-14T13:37:46;5.77;;;2.10;;
28958;SDS011;16066;0.000;0.000;2023-06-14T13:40:12;4.50;;;1.70;;
28958;SDS011;16066;0.000;0.000;2023-06-14T13:42:38;6.77;;;2.30;;
28958;SDS011;16066;0.000;0.000;2023-06-14T13:45:04;2.20;;;1.80;;
28958;SDS011;16066;0.000;0.000;2023-06-14T13:47:30;2.63;;;1.60;;
28958;SDS011;16066;0.000;0.000;2023-06-14T13:49:56;5.80;;;2.10;;
28958;SDS011;16066;0.000;0.000;2023-06-14T13:52:22;4.40;;;2.07;;
28958;SDS011;16066;0.000;0.000;2023-06-14T13:54:48;12.00;;;2.13;;
28958;SDS011;16066;0.000;0.000;2023-06-14T13:57:13;2.20;;;1.57;;
28958;SDS011;16066;0.000;0.000;2023-06-14T13:59:40;6.00;;;2.00;;
28958;SDS011;16066;0.000;0.000;2023-06-14T14:02:06;5.50;;;1.77;;
28958;SDS011;16066;0.000;0.000;2023-06-14T14:04:32;3.70;;;2.00;;
28958;SDS011;16066;0.000;0.000;2023-06-14T14:06:59;13.80;;;2.63;;
28958;SDS011;16066;0.000;0.000;2023-06-14T14:09:25;6.40;;;1.93;;
28958;SDS011;16066;0.000;0.000;2023-06-14T14:11:50;6.67;;;2.10;;
28958;SDS011;16066;0.000;0.000;2023-06-14T14:14:16;9.63;;;2.30;;
28958;SDS011;16066;0.000;0.000;2023-06-14T14:16:41;3.93;;;2.50;;
28958;SDS011;16066;0.000;0.000;2023-06-14T14:19:07;12.97;;;2.80;;
28958;SDS011;16066;0.000;0.000;2023-06-14T14:21:32;5.50;;;1.90;;
28958;SDS011;16066;0.000;0.000;2023-06-14T14:23:58;2.30;;;1.90;;
28958;SDS011;16066;0.000;0.000;2023-06-14T14:26:24;6.17;;;2.40;;
28958;SDS011;16066;0.000;0.000;2023-06-14T14:28:50;5.10;;;2.10;;
28958;SDS011;16066;0.000;0.000;2023-06-14T14:31:16;6.50;;;2.03;;
28958;SDS011;16066;0.000;0.000;2023-06-14T14:33:41;4.33;;;2.00;;
28958;SDS011;16066;0.000;0.000;2023-06-14T14:36:07;4.57;;;2.10;;
28958;SDS011;16066;0.000;0.000;2023-06-14T14:38:33;3.83;;;2.40;;
28958;SDS011;16066;0.000;0.000;2023-06-14T14:40:58;3.80;;;2.40;;
28958;SDS011;16066;0.000;0.000;2023-06-14T14:43:24;7.07;;;1.70;;
28958;SDS011;16066;0.000;0.000;2023-06-14T14:45:50;4.03;;;2.23;;
28958;SDS011;16066;0.000;0.000;2023-06-14T14:48:15;3.80;;;1.90;;
28958;SDS011;16066;0.000;0.000;2023-06-14T14:50:41;1.80;;;1.50;;
28958;SDS011;16066;0.000;0.000;2023-06-14T14:53:06;2.37;;;1.97;;
28958;SDS011;16066;0.000;0.000;2023-06-14T14:55:32;4.10;;;1.93;;
28958;SDS011;16066;0.000;0.000;2023-06-14T14:58:01;2.20;;;1.90;;
28958;SDS011;16066;0.000;0.000;2023-06-14T15:00:27;5.77;;;2.00;;
28958;SDS011;16066;0.000;0.000;2023-06-14T15:02:53;3.03;;;1.93;;
28958;SDS011;16066;0.000;0.000;2023-06-14T15:05:18;5.93;;;2.53;;
28958;SDS011;16066;0.000;0.000;2023-06-14T15:07:44;6.97;;;1.93;;
28958;SDS011;16066;0.000;0.000;2023-06-14T15:10:10;3.23;;;1.90;;
28958;SDS011;16066;0.000;0.000;2023-06-14T15:12:37;2.53;;;2.10;;
28958;SDS011;16066;0.000;0.000;2023-06-14T15:15:03;2.07;;;1.80;;
28958;SDS011;16066;0.000;0.000;2023-06-14T15:17:29;2.33;;;1.80;;
28958;SDS011;16066;0.000;0.000;2023-06-14T15:19:54;2.50;;;1.87;;
28958;SDS011;16066;0.000;0.000;2023-06-14T15:22:20;4.10;;;1.90;;
28958;SDS011;16066;0.000;0.000;2023-06-14T15:24:46;3.13;;;2.37;;
28958;SDS011;16066;0.000;0.000;2023-06-14T15:27:11;4.27;;;1.70;;
28958;SDS011;16066;0.000;0.000;2023-06-14T15:29:37;3.27;;;1.80;;
28958;SDS011;16066;0.000;0.000;2023-06-14T15:32:04;4.03;;;1.70;;
28958;SDS011;16066;0.000;0.000;2023-06-14T15:34:30;2.20;;;1.80;;
28958;SDS011;16066;0.000;0.000;2023-06-14T15:36:56;3.23;;;1.70;;
28958;SDS011;16066;0.000;0.000;2023-06-14T15:39:22;3.63;;;2.20;;
28958;SDS011;16066;0.000;0.000;2023-06-14T15:41:48;2.20;;;1.67;;
28958;SDS011;16066;0.000;0.000;2023-06-14T15:44:15;5.93;;;1.90;;
28958;SDS011;16066;0.000;0.000;2023-06-14T15:46:40;4.73;;;1.83;;
28958;SDS011;16066;0.000;0.000;2023-06-14T15:49:09;2.53;;;1.70;;
28958;SDS011;16066;0.000;0.000;2023-06-14T15:51:36;2.20;;;1.70;;
28958;SDS011;16066;0.000;0.000;2023-06-14T15:54:02;4.17;;;1.70;;
28958;SDS011;16066;0.000;0.000;2023-06-14T15:56:27;2.37;;;1.50;;
28958;SDS011;16066;0.000;0.000;2023-06-14T15:58:53;3.53;;;2.20;;
28958;SDS011;16066;0.000;0.000;2023-06-14T16:01:18;3.23;;;1.50;;
28958;SDS011;16066;0.000;0.000;2023-06-14T16:03:44;1.90;;;1.60;;
28958;SDS011;16066;0.000;0.000;2023-06-14T16:06:09;3.10;;;1.93;;
28958;SDS011;16066;0.000;0.000;2023-06-14T16:08:35;13.13;;;1.83;;
28958;SDS011;16066;0.000;0.000;2023-06-14T16:11:00;7.83;;;2.10;;
28958;SDS011;16066;0.000;0.000;2023-06-14T16:13:26;11.37;;;2.50;;
28958;SDS011;16066;0.000;0.000;2023-06-14T16:15:51;9.37;;;2.10;;
28958;SDS011;16066;0.000;0.000;2023-06-14T16:18:17;2.60;;;2.10;;
28958;SDS011;16066;0.000;0.000;2023-06-14T16:20:42;4.20;;;1.80;;
28958;SDS011;16066;0.000;0.000;2023-06-14T16:23:08;7.70;;;2.93;;
28958;SDS011;16066;0.000;0.000;2023-06-14T16:25:33;7.10;;;2.13;;
28958;SDS011;16066;0.000;0.000;2023-06-14T16:27:59;4.00;;;1.80;;
28958;SDS011;16066;0.000;0.000;2023-06-14T16:30:25;8.20;;;1.67;;
28958;SDS011;16066;0.000;0.000;2023-06-14T16:32:50;2.30;;;1.53;;
28958;SDS011;16066;0.000;0.000;2023-06-14T16:35:16;4.47;;;2.00;;
28958;SDS011;16066;0.000;0.000;2023-06-14T16:37:41;3.13;;;1.87;;
28958;SDS011;16066;0.000;0.000;2023-06-14T16:40:07;3.93;;;1.83;;
28958;SDS011;16066;0.000;0.000;2023-06-14T16:42:33;2.47;;;1.50;;
28958;SDS011;16066;0.000;0.000;2023-06-14T16:44:59;5.73;;;2.00;;
28958;SDS011;16066;0.000;0.000;2023-06-14T16:47:25;2.20;;;2.00;;
28958;SDS011;16066;0.000;0.000;2023-06-14T16:49:51;2.00;;;1.70;;
28958;SDS011;16066;0.000;0.000;2023-06-14T16:52:16;2.90;;;1.70;;
28958;SDS011;16066;0.000;0.000;2023-06-14T16:54:42;1.90;;;1.70;;
28958;SDS011;16066;0.000;0.000;2023-06-14T16:57:08;2.40;;;1.70;;
28958;SDS011;16066;0.000;0.000;2023-06-14T16:59:33;2.60;;;1.80;;
28958;SDS011;16066;0.000;0.000;2023-06-14T17:02:03;2.57;;;1.80;;
28958;SDS011;16066;0.000;0.000;2023-06-14T17:04:29;1.97;;;1.70;;
28958;SDS011;16066;0.000;0.000;2023-06-14T17:06:55;10.90;;;2.23;;
28958;SDS011;16066;0.000;0.000;2023-06-14T17:09:21;4.30;;;1.70;;
28958;SDS011;16066;0.000;0.000;2023-06-14T17:11:47;4.00;;;1.93;;
28958;SDS011;16066;0.000;0.000;2023-06-14T17:14:12;4.77;;;2.20;;
28958;SDS011;16066;0.000;0.000;2023-06-14T17:16:38;1.80;;;1.40;;
28958;SDS011;16066;0.000;0.000;2023-06-14T17:19:04;3.67;;;1.70;;
28958;SDS011;16066;0.000;0.000;2023-06-14T17:21:30;4.33;;;1.80;;
28958;SDS011;16066;0.000;0.000;2023-06-14T17:23:56;3.03;;;1.63;;
28958;SDS011;16066;0.000;0.000;2023-06-14T17:26:22;4.70;;;1.90;;
28958;SDS011;16066;0.000;0.000;2023-06-14T17:28:47;3.30;;;1.93;;
28958;SDS011;16066;0.000;0.000;2023-06-14T17:31:14;1.40;;;1.30;;
28958;SDS011;16066;0.000;0.000;2023-06-14T17:33:39;2.10;;;1.80;;
28958;SDS011;16066;0.000;0.000;2023-06-14T17:36:05;5.30;;;1.90;;
28958;SDS011;16066;0.000;0.000;2023-06-14T17:38:30;10.60;;;2.03;;
28958;SDS011;16066;0.000;0.000;2023-06-14T17:40:56;4.37;;;2.10;;
28958;SDS011;16066;0.000;0.000;2023-06-14T17:43:24;2.27;;;1.60;;
28958;SDS011;16066;0.000;0.000;2023-06-14T17:45:49;2.60;;;1.90;;
28958;SDS011;16066;0.000;0.000;2023-06-14T17:48:15;2.77;;;1.83;;
28958;SDS011;16066;0.000;0.000;2023-06-14T17:50:41;3.87;;;1.80;;
28958;SDS011;16066;0.000;0.000;2023-06-14T17:53:06;1.73;;;1.50;;
28958;SDS011;16066;0.000;0.000;2023-06-14T17:55:32;2.90;;;2.00;;
28958;SDS011;16066;0.000;0.000;2023-06-14T17:57:58;2.97;;;2.20;;
28958;SDS011;16066;0.000;0.000;2023-06-14T18:00:25;4.70;;;1.67;;
28958;SDS011;16066;0.000;0.000;2023-06-14T18:02:50;2.67;;;2.20;;
28958;SDS011;16066;0.000;0.000;2023-06-14T18:05:16;4.90;;;2.07;;
28958;SDS011;16066;0.000;0.000;2023-06-14T18:07:42;5.53;;;1.80;;
28958;SDS011;16066;0.000;0.000;2023-06-14T18:10:07;2.23;;;2.03;;
28958;SDS011;16066;0.000;0.000;2023-06-14T18:12:33;3.30;;;2.13;;
28958;SDS011;16066;0.000;0.000;2023-06-14T18:14:58;3.20;;;2.23;;
28958;SDS011;16066;0.000;0.000;2023-06-14T18:17:24;2.57;;;1.90;;
28958;SDS011;16066;0.000;0.000;2023-06-14T18:19:50;4.50;;;2.00;;
28958;SDS011;16066;0.000;0.000;2023-06-14T18:22:15;4.80;;;1.90;;
28958;SDS011;16066;0.000;0.000;2023-06-14T18:24:41;3.00;;;2.20;;
28958;SDS011;16066;0.000;0.000;2023-06-14T18:27:06;7.90;;;2.20;;
28958;SDS011;16066;0.000;0.000;2023-06-14T18:29:33;9.73;;;2.40;;
28958;SDS011;16066;0.000;0.000;2023-06-14T18:32:00;2.30;;;2.10;;
28958;SDS011;16066;0.000;0.000;2023-06-14T18:34:26;2.43;;;1.90;;
28958;SDS011;16066;0.000;0.000;2023-06-14T18:36:52;3.90;;;2.23;;
28958;SDS011;16066;0.000;0.000;2023-06-14T18:39:20;3.80;;;2.40;;
28958;SDS011;16066;0.000;0.000;2023-06-14T18:41:46;3.30;;;2.00;;
28958;SDS011;16066;0.000;0.000;2023-06-14T18:44:12;2.53;;;2.03;;
28958;SDS011;16066;0.000;0.000;2023-06-14T18:46:37;2.10;;;1.90;;
28958;SDS011;16066;0.000;0.000;2023-06-14T18:49:03;4.00;;;2.10;;
28958;SDS011;16066;0.000;0.000;2023-06-14T18:51:29;4.00;;;2.13;;
28958;SDS011;16066;0.000;0.000;2023-06-14T18:53:54;6.67;;;1.90;;
28958;SDS011;16066;0.000;0.000;2023-06-14T18:56:20;3.20;;;2.33;;
28958;SDS011;16066;0.000;0.000;2023-06-14T18:58:46;2.80;;;2.20;;
28958;SDS011;16066;0.000;0.000;2023-06-14T19:01:12;2.17;;;1.97;;
28958;SDS011;16066;0.000;0.000;2023-06-14T19:03:37;2.37;;;2.17;;
28958;SDS011;16066;0.000;0.000;2023-06-14T19:06:04;3.10;;;1.80;;
28958;SDS011;16066;0.000;0.000;2023-06-14T19:08:29;9.43;;;2.47;;
28958;SDS011;16066;0.000;0.000;2023-06-14T19:10:55;2.20;;;2.00;;
28958;SDS011;16066;0.000;0.000;2023-06-14T19:13:20;2.13;;;1.93;;
28958;SDS011;16066;0.000;0.000;2023-06-14T19:15:46;2.23;;;1.73;;
28958;SDS011;16066;0.000;0.000;2023-06-14T19:18:16;2.30;;;1.90;;
28958;SDS011;16066;0.000;0.000;2023-06-14T19:20:41;6.50;;;2.07;;
28958;SDS011;16066;0.000;0.000;2023-06-14T19:23:07;4.23;;;2.33;;
28958;SDS011;16066;0.000;0.000;2023-06-14T19:25:32;4.60;;;1.67;;
28958;SDS011;16066;0.000;0.000;2023-06-14T19:27:58;2.03;;;1.83;;
28958;SDS011;16066;0.000;0.000;2023-06-14T19:30:24;3.00;;;1.77;;
28958;SDS011;16066;0.000;0.000;2023-06-14T19:32:50;5.47;;;2.40;;
28958;SDS011;16066;0.000;0.000;2023-06-14T19:35:16;2.63;;;2.07;;
28958;SDS011;16066;0.000;0.000;2023-06-14T19:37:46;3.17;;;2.20;;
28958;SDS011;16066;0.000;0.000;2023-06-14T19:40:11;2.60;;;2.10;;
28958;SDS011;16066;0.000;0.000;2023-06-14T19:42:37;7.17;;;1.80;;
28958;SDS011;16066;0.000;0.000;2023-06-14T19:45:04;2.73;;;2.00;;
28958;SDS011;16066;0.000;0.000;2023-06-14T19:47:32;2.60;;;1.90;;
28958;SDS011;16066;0.000;0.000;2023-06-14T19:49:58;5.93;;;1.77;;
28958;SDS011;16066;0.000;0.000;2023-06-14T19:52:24;5.83;;;1.90;;
28958;SDS011;16066;0.000;0.000;2023-06-14T19:54:49;4.60;;;2.13;;
28958;SDS011;16066;0.000;0.000;2023-06-14T19:57:15;2.80;;;2.03;;
28958;SDS011;16066;0.000;0.000;2023-06-14T19:59:42;2.30;;;1.90;;
28958;SDS011;16066;0.000;0.000;2023-06-14T20:02:08;2.07;;;1.87;;
28958;SDS011;16066;0.000;0.000;2023-06-14T20:04:34;2.53;;;2.27;;
28958;SDS011;16066;0.000;0.000;2023-06-14T20:07:01;2.33;;;2.13;;
28958;SDS011;16066;0.000;0.000;2023-06-14T20:09:30;2.87;;;2.20;;
28958;SDS011;16066;0.000;0.000;2023-06-14T20:11:59;5.70;;;1.83;;
28958;SDS011;16066;0.000;0.000;2023-06-14T20:14:24;2.27;;;2.00;;
28958;SDS011;16066;0.000;0.000;2023-06-14T20:16:50;2.40;;;2.13;;
28958;SDS011;16066;0.000;0.000;2023-06-14T20:19:16;5.90;;;2.20;;
28958;SDS011;16066;0.000;0.000;2023-06-14T20:21:42;2.40;;;1.80;;
28958;SDS011;16066;0.000;0.000;2023-06-14T20:24:08;2.50;;;1.77;;
28958;SDS011;16066;0.000;0.000;2023-06-14T20:26:33;3.20;;;1.70;;
28958;SDS011;16066;0.000;0.000;2023-06-14T20:28:59;2.70;;;2.03;;
28958;SDS011;16066;0.000;0.000;2023-06-14T20:31:24;2.27;;;1.70;;
28958;SDS011;16066;0.000;0.000;2023-06-14T20:33:50;2.20;;;1.80;;
28958;SDS011;16066;0.000;0.000;2023-06-14T20:36:15;3.20;;;1.50;;
28958;SDS011;16066;0.000;0.000;2023-06-14T20:38:43;2.10;;;1.90;;